Whiteville, NC

1:54 PM EDT on September 02, 2014 (GMT -0400)
CCSkywatch | Change Station
CLOSE
Current Station
Personal Weather Station
Location: Whiteville, NC
Elevation: 91 ft
Nearby Weather Stations

Elev 91 ft 34.41 °N, 78.75 °W | Updated 13 seconds ago

Mostly Cloudy
Mostly Cloudy
93.4 °F
Feels Like 106 °F
N
3.0
Wind Variable Wind from SSW
Gusts 6.0 mph

Today
High -- | Low -- °F
--% Chance of Precip.
Yesterday
High -- | Low -- °F
Precip. -- in
6:48 AM 7:39 PM
First Quarter, 53% visible
Pressure 30.06 in
Visibility 10.0 miles
Clouds Scattered Clouds 3400 ft
Mostly Cloudy 4300 ft
Heat Index 106 °F
Dew Point 75 °F
Humidity 56%
Rainfall 0.00 in
Snow Depth Not available.
UV 6 out of 12
Pollen 9.00 out of 12
Air Quality Not available.
Flu Activity Not available.
METAR KCPC 021735Z AUTO 26004KT 10SM SCT034 BKN043 33/24 A3006 RMK AO2 T03270240

More Conditions Fewer Conditions

Pressure 30.06 in
Visibility 10.0 miles
Clouds Scattered Clouds 3400 ft
Mostly Cloudy 4300 ft
Heat Index 106 °F
Dew Point 75 °F
Humidity 56%
Rainfall 0.00 in
Snow Depth Not available.
UV 6 out of 12
Pollen 9.00 out of 12
Air Quality Not available.
Flu Activity Not available.
METAR KCPC 021735Z AUTO 26004KT 10SM SCT034 BKN043 33/24 A3006 RMK AO2 T03270240

More Conditions Fewer Conditions

10-Day Weather Forecast

Almanac

Astronomy

Sep. 02, 2014 Rise Set
Actual Time 6:48 AM EDT 7:39 PM EDT
Civil Twilight 6:23 AM EDT 8:05 PM EDT
Nautical Twilight 5:52 AM EDT 8:35 PM EDT
Astronomical Twilight 5:21 AM EDT 9:06 PM EDT
Moon 2:13 PM EDT No Moon Set
Length of Visible Light 13h 41m
Length of Day
12h 50m
Tomorrow will be 2m 3s shorter.
First Quarter, 53% of the Moon is Illuminated
Today
First Quarter
Sep 8
Full
Sep 15
Last Quarter
Sep 24
New
Oct 1
First Quarter

Today's Extremes

State Highs State Lows

Community

WunderPhotos

Upload Photos

1,749,724 photos uploaded!

WunderBlogs® & News

Nearby

Snow Depth

Station Depth Elevation
No new snow has been reported.

Earthquake Activity

City Distance Mag. Time & Date
No recent earthquake activity has been reported nearby.
Minimum magnitude displayed is 2.5.

Coastal Water Temperatures

Place Temperature
No Stations Reporting

Nearby Weather Stations